METAR
Output Produced by Metar
found at http://aviationweather.gov/adds/metars/
 

Data at: 0150 UTC 07 Feb 2023

METAR for:WIII (Jakarta Intl, JB, ID)
Text:WIII 070130Z 24009KT 8000 SCT020 28/24 Q1009 NOSIG
Temperature: 28.0°C ( 82°F)
Dewpoint: 24.0°C ( 75°F) [RH = 79%]
Pressure (altimeter):29.79 inches Hg (1009.0 mb)
Winds:from the WSW (240 degrees) at 10 MPH (9 knots; 4.6 m/s)
Visibility: 5 sm ( 8 km)
Ceiling:at least 12,000 feet AGL
Clouds: scattered clouds at 2000 feet AGL